createdAt,value
2022-08-05T00:04:58.083Z,62.40
2022-08-05T00:10:00.828Z,62.60
2022-08-05T00:15:54.550Z,62.10
2022-08-05T00:20:29.053Z,62.00
2022-08-05T00:25:45.520Z,61.70
2022-08-05T00:30:52.103Z,61.60
2022-08-05T00:36:16.304Z,61.60
2022-08-05T00:41:29.293Z,61.20
2022-08-05T00:46:54.278Z,60.60
2022-08-05T00:52:05.420Z,60.90
2022-08-05T00:57:08.666Z,60.80
2022-08-05T01:02:12.788Z,60.60
2022-08-05T01:07:19.313Z,60.60
2022-08-05T01:12:23.077Z,60.20
2022-08-05T01:17:32.154Z,60.40
2022-08-05T01:22:57.207Z,60.30
2022-08-05T01:28:15.754Z,61.10
2022-08-05T01:33:21.544Z,62.40
2022-08-05T01:38:30.276Z,63.60
2022-08-05T01:43:35.538Z,65.40
2022-08-05T01:48:41.076Z,67.20
2022-08-05T01:53:57.064Z,68.50
2022-08-05T01:59:07.479Z,68.80
2022-08-05T02:04:11.734Z,70.50
2022-08-05T02:09:16.361Z,73.00
2022-08-05T02:14:27.245Z,74.40
2022-08-05T02:19:35.371Z,74.70
2022-08-05T02:24:41.038Z,74.40
2022-08-05T02:30:00.052Z,74.90
2022-08-05T02:35:13.375Z,75.60
2022-08-05T02:40:18.446Z,76.70
2022-08-05T02:45:24.397Z,77.10
2022-08-05T02:50:30.043Z,77.90
2022-08-05T02:55:54.856Z,80.00
2022-08-05T03:01:00.731Z,81.50
2022-08-05T03:06:56.225Z,82.80
2022-08-05T03:11:57.133Z,82.00
2022-08-05T03:16:53.501Z,81.80
2022-08-05T03:21:56.286Z,83.40
2022-08-05T03:27:01.353Z,85.70
2022-08-05T03:32:07.900Z,89.30
2022-08-05T03:37:11.750Z,90.90
2022-08-05T03:42:17.054Z,90.10
2022-08-05T03:47:21.297Z,86.80
2022-08-05T03:52:48.368Z,86.60
2022-08-05T03:57:54.073Z,87.30
2022-08-05T04:03:02.769Z,89.10
2022-08-05T04:08:22.464Z,90.40
2022-08-05T04:13:50.138Z,91.00
2022-08-05T04:18:57.957Z,91.50
2022-08-05T04:24:06.477Z,91.50
2022-08-05T04:29:11.579Z,91.70
2022-08-05T04:34:31.401Z,92.00
2022-08-05T04:39:35.950Z,92.50
2022-08-05T04:44:39.160Z,92.70
2022-08-05T04:50:03.013Z,92.60
2022-08-05T04:55:14.449Z,92.40
2022-08-05T05:00:18.477Z,92.00
2022-08-05T05:05:28.799Z,91.60
2022-08-05T05:10:33.667Z,91.00
2022-08-05T05:15:56.546Z,90.50
2022-08-05T05:21:00.817Z,90.10
2022-08-05T05:26:03.516Z,90.10
2022-08-05T05:31:08.929Z,87.80
2022-08-05T05:36:13.098Z,87.80
2022-08-05T05:41:17.521Z,85.30
2022-08-05T05:46:21.798Z,84.60
2022-08-05T05:51:28.057Z,85.00
2022-08-05T05:56:34.865Z,82.30
2022-08-05T06:01:40.009Z,80.60
2022-08-05T06:06:46.648Z,79.00
2022-08-05T06:11:59.383Z,77.60
2022-08-05T06:17:21.990Z,76.50
2022-08-05T06:22:28.683Z,74.80
2022-08-05T06:28:10.501Z,74.90
2022-08-05T06:33:09.708Z,73.80
2022-08-05T06:38:13.386Z,73.20
2022-08-05T06:43:57.834Z,71.10
2022-08-05T06:48:55.581Z,71.10
2022-08-05T06:54:04.571Z,69.60
2022-08-05T06:59:11.980Z,67.70
2022-08-05T07:04:14.792Z,66.70
2022-08-05T07:09:24.930Z,64.90
2022-08-05T07:14:46.856Z,67.10
2022-08-05T07:20:31.226Z,69.50
2022-08-05T07:25:54.122Z,72.00
2022-08-05T07:30:40.058Z,75.00
2022-08-05T07:36:01.994Z,79.20
2022-08-05T07:42:08.441Z,82.40
2022-08-05T07:46:32.275Z,84.50
2022-08-05T07:51:40.791Z,86.80
2022-08-05T07:57:13.850Z,88.90
2022-08-05T08:02:26.550Z,89.10
2022-08-05T08:07:39.737Z,89.00
2022-08-05T08:12:58.530Z,85.70
2022-08-05T08:18:05.927Z,83.20
2022-08-05T08:24:01.929Z,81.10
2022-08-05T08:28:49.669Z,83.20
2022-08-05T08:34:13.322Z,83.70
2022-08-05T08:39:32.954Z,86.20
2022-08-05T08:45:19.917Z,86.70
2022-08-05T08:50:30.636Z,86.00
2022-08-05T08:55:31.912Z,84.30
2022-08-05T09:00:53.514Z,77.50
2022-08-05T09:06:07.572Z,74.20
2022-08-05T09:11:16.725Z,69.30
2022-08-05T09:16:50.537Z,60.40
2022-08-05T09:40:56.743Z,44.70
2022-08-05T10:10:59.325Z,40.60
2022-08-05T10:16:03.442Z,38.80
2022-08-05T10:21:11.742Z,37.30
2022-08-05T10:26:24.159Z,35.60
2022-08-05T10:32:54.348Z,35.10
2022-08-05T10:36:50.390Z,32.70
2022-08-05T10:42:01.816Z,30.10
2022-08-05T10:47:26.982Z,30.00
2022-08-05T10:52:49.504Z,29.40
2022-08-05T10:58:11.488Z,29.60
2022-08-05T11:03:23.285Z,28.50
2022-08-05T11:08:38.134Z,28.40
2022-08-05T11:13:57.679Z,27.90
2022-08-05T11:20:10.370Z,28.20
2022-08-05T11:26:04.283Z,27.80
2022-08-05T11:31:56.299Z,27.70
2022-08-05T11:36:53.757Z,27.70
2022-08-05T11:42:04.271Z,30.40
2022-08-05T11:47:14.149Z,29.70
2022-08-05T11:52:29.412Z,27.40
2022-08-05T11:58:08.625Z,25.60
2022-08-05T12:02:57.024Z,25.10
2022-08-05T12:08:03.443Z,25.10
2022-08-05T12:13:16.701Z,24.90
2022-08-05T12:18:32.762Z,24.20
2022-08-05T12:23:36.506Z,26.10
2022-08-05T12:28:46.402Z,24.70
2022-08-05T12:33:50.852Z,23.70
2022-08-05T12:38:55.960Z,22.30
2022-08-05T12:44:01.626Z,23.10
2022-08-05T12:49:13.464Z,23.20
2022-08-05T12:54:23.529Z,26.30
2022-08-05T12:59:46.647Z,27.40
2022-08-05T13:04:55.912Z,25.60
2022-08-05T13:09:59.708Z,23.90
2022-08-05T13:15:07.462Z,23.00
2022-08-05T13:20:16.522Z,23.60
2022-08-05T13:25:52.229Z,24.20
2022-08-05T13:30:45.459Z,23.90
2022-08-05T13:35:52.556Z,23.70
2022-08-05T13:40:55.284Z,23.90
2022-08-05T13:45:58.291Z,24.30
2022-08-05T13:51:08.354Z,24.20
2022-08-05T13:56:18.977Z,24.50
2022-08-05T14:01:36.448Z,25.90
2022-08-05T14:06:47.602Z,27.50
2022-08-05T14:12:04.282Z,26.90
2022-08-05T14:17:16.830Z,27.20
2022-08-05T14:22:22.471Z,27.10
2022-08-05T14:27:25.230Z,28.60
2022-08-05T14:32:31.475Z,27.30
2022-08-05T14:37:45.632Z,25.90
2022-08-05T14:42:51.020Z,25.60
2022-08-05T14:48:04.116Z,25.30
2022-08-05T14:53:10.004Z,25.90
2022-08-05T14:58:13.815Z,25.70
2022-08-05T15:03:16.896Z,25.10
2022-08-05T15:08:57.607Z,25.60
2022-08-05T15:13:49.332Z,26.20
2022-08-05T15:18:53.112Z,26.40
2022-08-05T15:23:57.176Z,27.50
2022-08-05T15:29:02.493Z,29.10
2022-08-05T15:34:31.207Z,28.90
2022-08-05T15:40:58.700Z,30.20
2022-08-05T15:44:54.808Z,31.70
2022-08-05T15:49:59.489Z,32.50
2022-08-05T15:55:04.359Z,33.40
2022-08-05T16:00:08.922Z,35.20
2022-08-05T16:05:11.864Z,35.00
2022-08-05T16:16:49.715Z,35.30
2022-08-05T16:22:02.831Z,35.70
2022-08-05T16:27:47.254Z,36.30
2022-08-05T16:33:41.326Z,37.60
2022-08-05T16:38:58.957Z,38.40
2022-08-05T16:44:29.181Z,37.90
2022-08-05T16:49:54.633Z,37.00
2022-08-05T16:55:04.320Z,37.20
2022-08-05T17:00:10.791Z,38.20
2022-08-05T17:05:20.167Z,39.60
2022-08-05T17:10:26.521Z,39.50
2022-08-05T17:16:28.064Z,40.80
2022-08-05T17:21:41.109Z,41.40
2022-08-05T17:26:56.459Z,42.50
2022-08-05T17:32:00.872Z,44.20
2022-08-05T17:37:39.522Z,47.10
2022-08-05T17:42:51.976Z,47.10
2022-08-05T17:47:58.294Z,46.10
2022-08-05T17:53:35.951Z,45.50
2022-08-05T18:06:11.882Z,50.40
2022-08-05T18:11:24.113Z,55.80
2022-08-05T18:16:51.535Z,59.60
2022-08-05T18:22:09.822Z,64.20
2022-08-05T18:27:18.901Z,69.20
2022-08-05T18:32:21.932Z,74.40
2022-08-05T18:37:34.151Z,80.80
2022-08-05T18:42:44.562Z,89.20
2022-08-05T18:47:56.682Z,93.60
2022-08-05T18:53:00.943Z,96.60
2022-08-05T18:58:18.920Z,99.90
2022-08-05T19:03:53.374Z,99.90
2022-08-05T19:08:58.862Z,99.90
2022-08-05T19:14:37.549Z,99.90
2022-08-05T19:19:29.577Z,99.90
2022-08-05T19:24:35.105Z,99.90
2022-08-05T19:29:44.308Z,99.90
2022-08-05T19:34:54.938Z,99.90
2022-08-05T19:39:59.057Z,99.90
2022-08-05T19:45:03.284Z,99.90
2022-08-05T19:50:12.274Z,99.90
2022-08-05T19:56:13.795Z,99.90
2022-08-05T20:00:40.065Z,99.90
2022-08-05T20:05:51.373Z,99.90
2022-08-05T20:27:57.543Z,99.90
2022-08-05T20:33:00.456Z,99.90
2022-08-05T20:38:08.051Z,99.90
2022-08-05T20:43:12.458Z,99.90
2022-08-05T20:48:16.372Z,99.90
2022-08-05T20:53:36.517Z,99.90
2022-08-05T20:58:43.444Z,99.90
2022-08-05T21:03:48.146Z,99.90
2022-08-05T21:08:51.685Z,99.90
2022-08-05T21:13:57.070Z,99.90
2022-08-05T21:19:00.938Z,99.90
2022-08-05T21:24:06.581Z,99.90
2022-08-05T21:29:12.433Z,99.90
2022-08-05T21:34:20.383Z,99.90
2022-08-05T21:39:27.068Z,99.90
2022-08-05T21:44:32.793Z,99.90
2022-08-05T21:49:59.522Z,99.90
2022-08-05T21:55:06.236Z,99.90
2022-08-05T22:00:12.913Z,99.90
2022-08-05T22:05:15.650Z,99.90
2022-08-05T22:10:26.567Z,99.90
2022-08-05T22:16:00.814Z,99.90
2022-08-05T22:20:54.278Z,99.90
2022-08-05T22:26:15.699Z,99.90
2022-08-05T22:31:19.689Z,99.90
2022-08-05T22:36:23.767Z,99.90
2022-08-05T22:42:10.964Z,99.90
2022-08-05T22:46:51.178Z,99.90
2022-08-05T22:52:04.672Z,99.90
2022-08-05T22:57:09.775Z,99.90
2022-08-05T23:02:28.946Z,99.90
2022-08-05T23:07:32.867Z,99.90
2022-08-05T23:12:47.489Z,99.90
2022-08-05T23:18:01.819Z,99.90
2022-08-05T23:23:05.886Z,99.90
2022-08-05T23:28:11.213Z,99.90
2022-08-05T23:33:25.551Z,99.90
2022-08-05T23:38:38.882Z,99.90
2022-08-05T23:44:04.697Z,99.90
2022-08-05T23:49:16.474Z,99.90
2022-08-05T23:54:25.038Z,99.90
